sensor_id;sensor_type;location;lat;lon;timestamp;P1;durP1;ratioP1;P2;durP2;ratioP2
26034;SDS011;13809;48.632;11.576;2023-04-24T00:01:13;1.60;;;1.50;;
26034;SDS011;13809;48.632;11.576;2023-04-24T00:06:16;1.37;;;1.20;;
26034;SDS011;13809;48.632;11.576;2023-04-24T00:11:19;1.90;;;1.43;;
26034;SDS011;13809;48.632;11.576;2023-04-24T00:16:24;1.50;;;1.40;;
26034;SDS011;13809;48.632;11.576;2023-04-24T00:21:27;1.60;;;1.50;;
26034;SDS011;13809;48.632;11.576;2023-04-24T00:26:31;1.57;;;1.20;;
26034;SDS011;13809;48.632;11.576;2023-04-24T00:31:35;1.80;;;1.40;;
26034;SDS011;13809;48.632;11.576;2023-04-24T00:36:39;1.47;;;1.37;;
26034;SDS011;13809;48.632;11.576;2023-04-24T00:41:42;2.37;;;1.40;;
26034;SDS011;13809;48.632;11.576;2023-04-24T00:46:48;1.30;;;1.30;;
26034;SDS011;13809;48.632;11.576;2023-04-24T00:51:55;1.50;;;1.40;;
26034;SDS011;13809;48.632;11.576;2023-04-24T00:57:00;1.60;;;1.50;;
26034;SDS011;13809;48.632;11.576;2023-04-24T01:02:05;1.30;;;1.20;;
26034;SDS011;13809;48.632;11.576;2023-04-24T01:07:09;1.60;;;1.27;;
26034;SDS011;13809;48.632;11.576;2023-04-24T01:12:13;1.80;;;1.00;;
26034;SDS011;13809;48.632;11.576;2023-04-24T01:17:18;1.60;;;1.30;;
26034;SDS011;13809;48.632;11.576;2023-04-24T01:22:23;1.27;;;1.13;;
26034;SDS011;13809;48.632;11.576;2023-04-24T01:27:26;1.60;;;1.10;;
26034;SDS011;13809;48.632;11.576;2023-04-24T01:32:29;1.03;;;1.00;;
26034;SDS011;13809;48.632;11.576;2023-04-24T01:37:34;0.97;;;0.87;;
26034;SDS011;13809;48.632;11.576;2023-04-24T01:42:39;2.10;;;1.07;;
26034;SDS011;13809;48.632;11.576;2023-04-24T01:47:44;1.40;;;1.00;;
26034;SDS011;13809;48.632;11.576;2023-04-24T01:52:49;0.80;;;0.80;;
26034;SDS011;13809;48.632;11.576;2023-04-24T01:57:53;1.33;;;0.90;;
26034;SDS011;13809;48.632;11.576;2023-04-24T02:02:58;1.20;;;0.97;;
26034;SDS011;13809;48.632;11.576;2023-04-24T02:08:04;1.10;;;0.97;;
26034;SDS011;13809;48.632;11.576;2023-04-24T02:13:07;0.90;;;0.90;;
26034;SDS011;13809;48.632;11.576;2023-04-24T02:18:11;0.90;;;0.90;;
26034;SDS011;13809;48.632;11.576;2023-04-24T02:23:16;0.80;;;0.80;;
26034;SDS011;13809;48.632;11.576;2023-04-24T02:28:19;1.20;;;0.90;;
26034;SDS011;13809;48.632;11.576;2023-04-24T02:33:22;0.90;;;0.90;;
26034;SDS011;13809;48.632;11.576;2023-04-24T02:38:26;0.83;;;0.70;;
26034;SDS011;13809;48.632;11.576;2023-04-24T02:43:30;1.90;;;0.97;;
26034;SDS011;13809;48.632;11.576;2023-04-24T02:48:33;0.80;;;0.80;;
26034;SDS011;13809;48.632;11.576;2023-04-24T02:53:37;0.67;;;0.67;;
26034;SDS011;13809;48.632;11.576;2023-04-24T02:58:40;0.80;;;0.80;;
26034;SDS011;13809;48.632;11.576;2023-04-24T03:03:44;0.90;;;0.90;;
26034;SDS011;13809;48.632;11.576;2023-04-24T03:08:49;0.80;;;0.80;;
26034;SDS011;13809;48.632;11.576;2023-04-24T03:13:52;1.50;;;0.87;;
26034;SDS011;13809;48.632;11.576;2023-04-24T03:18:55;0.93;;;0.77;;
26034;SDS011;13809;48.632;11.576;2023-04-24T03:24:00;0.90;;;0.80;;
26034;SDS011;13809;48.632;11.576;2023-04-24T03:29:03;2.30;;;0.90;;
26034;SDS011;13809;48.632;11.576;2023-04-24T03:34:06;1.17;;;0.90;;
26034;SDS011;13809;48.632;11.576;2023-04-24T03:39:11;0.87;;;0.87;;
26034;SDS011;13809;48.632;11.576;2023-04-24T03:44:14;1.43;;;0.93;;
26034;SDS011;13809;48.632;11.576;2023-04-24T03:49:17;1.00;;;0.90;;
26034;SDS011;13809;48.632;11.576;2023-04-24T03:54:22;2.00;;;0.97;;
26034;SDS011;13809;48.632;11.576;2023-04-24T03:59:25;1.30;;;0.90;;
26034;SDS011;13809;48.632;11.576;2023-04-24T04:04:28;1.03;;;0.90;;
26034;SDS011;13809;48.632;11.576;2023-04-24T04:09:33;0.70;;;0.70;;
26034;SDS011;13809;48.632;11.576;2023-04-24T04:14:36;0.80;;;0.80;;
26034;SDS011;13809;48.632;11.576;2023-04-24T04:19:40;2.27;;;0.83;;
26034;SDS011;13809;48.632;11.576;2023-04-24T04:24:45;1.10;;;1.10;;
26034;SDS011;13809;48.632;11.576;2023-04-24T04:29:48;4.97;;;4.50;;
26034;SDS011;13809;48.632;11.576;2023-04-24T04:34:51;3.00;;;2.70;;
26034;SDS011;13809;48.632;11.576;2023-04-24T04:39:56;2.50;;;2.30;;
26034;SDS011;13809;48.632;11.576;2023-04-24T04:45:00;4.80;;;4.27;;
26034;SDS011;13809;48.632;11.576;2023-04-24T04:50:03;6.40;;;5.80;;
26034;SDS011;13809;48.632;11.576;2023-04-24T04:55:09;2.57;;;2.37;;
26034;SDS011;13809;48.632;11.576;2023-04-24T05:00:12;1.83;;;1.67;;
26034;SDS011;13809;48.632;11.576;2023-04-24T05:05:16;2.80;;;2.60;;
26034;SDS011;13809;48.632;11.576;2023-04-24T05:10:21;1.50;;;1.40;;
26034;SDS011;13809;48.632;11.576;2023-04-24T05:15:25;1.67;;;1.57;;
26034;SDS011;13809;48.632;11.576;2023-04-24T05:20:28;2.27;;;1.30;;
26034;SDS011;13809;48.632;11.576;2023-04-24T05:25:32;2.33;;;1.67;;
26034;SDS011;13809;48.632;11.576;2023-04-24T05:30:36;2.50;;;1.50;;
26034;SDS011;13809;48.632;11.576;2023-04-24T05:35:40;2.40;;;1.80;;
26034;SDS011;13809;48.632;11.576;2023-04-24T05:40:48;2.40;;;2.10;;
26034;SDS011;13809;48.632;11.576;2023-04-24T05:45:51;1.80;;;1.70;;
26034;SDS011;13809;48.632;11.576;2023-04-24T05:50:54;3.53;;;2.60;;
26034;SDS011;13809;48.632;11.576;2023-04-24T05:55:59;1.97;;;1.60;;
26034;SDS011;13809;48.632;11.576;2023-04-24T06:01:02;1.73;;;1.60;;
26034;SDS011;13809;48.632;11.576;2023-04-24T06:06:06;1.60;;;1.50;;
26034;SDS011;13809;48.632;11.576;2023-04-24T06:11:11;1.30;;;1.20;;
26034;SDS011;13809;48.632;11.576;2023-04-24T06:16:14;1.33;;;1.23;;
26034;SDS011;13809;48.632;11.576;2023-04-24T06:21:17;1.20;;;1.10;;
26034;SDS011;13809;48.632;11.576;2023-04-24T06:26:22;1.07;;;1.00;;
26034;SDS011;13809;48.632;11.576;2023-04-24T06:31:26;1.30;;;1.20;;
26034;SDS011;13809;48.632;11.576;2023-04-24T06:36:29;1.07;;;1.00;;
26034;SDS011;13809;48.632;11.576;2023-04-24T06:41:35;1.10;;;1.00;;
26034;SDS011;13809;48.632;11.576;2023-04-24T06:46:38;1.37;;;1.10;;
26034;SDS011;13809;48.632;11.576;2023-04-24T06:51:42;1.40;;;1.27;;
26034;SDS011;13809;48.632;11.576;2023-04-24T06:56:46;1.67;;;1.10;;
26034;SDS011;13809;48.632;11.576;2023-04-24T07:01:51;1.40;;;1.30;;
26034;SDS011;13809;48.632;11.576;2023-04-24T07:06:56;1.10;;;1.00;;
26034;SDS011;13809;48.632;11.576;2023-04-24T07:12:01;1.00;;;1.00;;
26034;SDS011;13809;48.632;11.576;2023-04-24T07:17:04;2.20;;;1.10;;
26034;SDS011;13809;48.632;11.576;2023-04-24T07:22:07;1.17;;;1.07;;
26034;SDS011;13809;48.632;11.576;2023-04-24T07:27:14;1.70;;;0.83;;
26034;SDS011;13809;48.632;11.576;2023-04-24T07:32:17;1.27;;;0.90;;
26034;SDS011;13809;48.632;11.576;2023-04-24T07:37:20;1.77;;;1.00;;
26034;SDS011;13809;48.632;11.576;2023-04-24T07:42:25;1.40;;;0.97;;
26034;SDS011;13809;48.632;11.576;2023-04-24T07:47:28;0.87;;;0.87;;
26034;SDS011;13809;48.632;11.576;2023-04-24T07:52:32;1.93;;;0.97;;
26034;SDS011;13809;48.632;11.576;2023-04-24T07:57:36;1.03;;;0.90;;
26034;SDS011;13809;48.632;11.576;2023-04-24T08:02:39;2.13;;;0.90;;
26034;SDS011;13809;48.632;11.576;2023-04-24T08:07:43;1.70;;;1.00;;
26034;SDS011;13809;48.632;11.576;2023-04-24T08:12:48;1.67;;;0.87;;
26034;SDS011;13809;48.632;11.576;2023-04-24T08:17:52;2.07;;;1.10;;
26034;SDS011;13809;48.632;11.576;2023-04-24T08:22:58;2.13;;;1.10;;
26034;SDS011;13809;48.632;11.576;2023-04-24T08:28:05;1.70;;;1.27;;
26034;SDS011;13809;48.632;11.576;2023-04-24T08:33:09;1.20;;;1.10;;
26034;SDS011;13809;48.632;11.576;2023-04-24T08:38:12;1.33;;;1.23;;
26034;SDS011;13809;48.632;11.576;2023-04-24T08:43:16;1.13;;;1.10;;
26034;SDS011;13809;48.632;11.576;2023-04-24T08:48:20;2.20;;;1.50;;
26034;SDS011;13809;48.632;11.576;2023-04-24T08:53:32;1.17;;;1.07;;
26034;SDS011;13809;48.632;11.576;2023-04-24T08:58:37;1.33;;;1.23;;
26034;SDS011;13809;48.632;11.576;2023-04-24T09:03:41;1.37;;;1.27;;
26034;SDS011;13809;48.632;11.576;2023-04-24T09:08:45;1.70;;;1.60;;
26034;SDS011;13809;48.632;11.576;2023-04-24T09:13:51;1.60;;;1.50;;
26034;SDS011;13809;48.632;11.576;2023-04-24T09:18:55;2.30;;;1.80;;
26034;SDS011;13809;48.632;11.576;2023-04-24T09:23:58;1.67;;;1.57;;
26034;SDS011;13809;48.632;11.576;2023-04-24T09:29:05;1.70;;;1.60;;
26034;SDS011;13809;48.632;11.576;2023-04-24T09:34:08;1.80;;;1.70;;
26034;SDS011;13809;48.632;11.576;2023-04-24T09:39:12;1.50;;;1.40;;
26034;SDS011;13809;48.632;11.576;2023-04-24T09:44:19;1.60;;;1.50;;
26034;SDS011;13809;48.632;11.576;2023-04-24T09:49:24;1.67;;;1.50;;
26034;SDS011;13809;48.632;11.576;2023-04-24T09:54:28;1.70;;;1.60;;
26034;SDS011;13809;48.632;11.576;2023-04-24T09:59:33;1.50;;;1.40;;
26034;SDS011;13809;48.632;11.576;2023-04-24T10:04:37;2.07;;;1.40;;
26034;SDS011;13809;48.632;11.576;2023-04-24T10:09:41;1.77;;;1.53;;
26034;SDS011;13809;48.632;11.576;2023-04-24T10:14:46;1.47;;;1.37;;
26034;SDS011;13809;48.632;11.576;2023-04-24T10:19:49;1.83;;;1.53;;
26034;SDS011;13809;48.632;11.576;2023-04-24T10:24:53;1.60;;;1.50;;
26034;SDS011;13809;48.632;11.576;2023-04-24T10:29:58;1.70;;;1.60;;
26034;SDS011;13809;48.632;11.576;2023-04-24T10:35:02;1.63;;;1.40;;
26034;SDS011;13809;48.632;11.576;2023-04-24T10:40:06;1.40;;;1.30;;
26034;SDS011;13809;48.632;11.576;2023-04-24T10:45:17;1.47;;;1.37;;
26034;SDS011;13809;48.632;11.576;2023-04-24T10:50:22;1.43;;;1.40;;
26034;SDS011;13809;48.632;11.576;2023-04-24T10:55:42;1.13;;;1.00;;
26034;SDS011;13809;48.632;11.576;2023-04-24T11:00:56;0.87;;;0.87;;
26034;SDS011;13809;48.632;11.576;2023-04-24T11:06:01;1.20;;;1.10;;
26034;SDS011;13809;48.632;11.576;2023-04-24T11:11:09;1.20;;;0.90;;
26034;SDS011;13809;48.632;11.576;2023-04-24T11:16:16;1.10;;;1.00;;
26034;SDS011;13809;48.632;11.576;2023-04-24T11:21:23;1.97;;;1.00;;
26034;SDS011;13809;48.632;11.576;2023-04-24T11:26:27;1.20;;;1.10;;
26034;SDS011;13809;48.632;11.576;2023-04-24T11:31:35;1.53;;;1.43;;
26034;SDS011;13809;48.632;11.576;2023-04-24T11:36:39;1.70;;;1.50;;
26034;SDS011;13809;48.632;11.576;2023-04-24T11:41:45;1.50;;;1.33;;
26034;SDS011;13809;48.632;11.576;2023-04-24T11:46:50;1.50;;;1.40;;
26034;SDS011;13809;48.632;11.576;2023-04-24T11:51:54;1.40;;;1.33;;
26034;SDS011;13809;48.632;11.576;2023-04-24T11:57:03;2.00;;;1.53;;
26034;SDS011;13809;48.632;11.576;2023-04-24T12:02:09;1.60;;;1.50;;
26034;SDS011;13809;48.632;11.576;2023-04-24T12:07:23;2.80;;;1.10;;
26034;SDS011;13809;48.632;11.576;2023-04-24T12:12:27;2.07;;;1.37;;
26034;SDS011;13809;48.632;11.576;2023-04-24T12:17:32;1.23;;;1.10;;
26034;SDS011;13809;48.632;11.576;2023-04-24T12:22:44;1.60;;;1.30;;
26034;SDS011;13809;48.632;11.576;2023-04-24T12:27:52;1.20;;;1.10;;
26034;SDS011;13809;48.632;11.576;2023-04-24T12:32:58;1.03;;;1.00;;
26034;SDS011;13809;48.632;11.576;2023-04-24T12:38:06;0.97;;;0.90;;
26034;SDS011;13809;48.632;11.576;2023-04-24T12:43:13;0.90;;;0.90;;
26034;SDS011;13809;48.632;11.576;2023-04-24T12:48:19;1.80;;;1.10;;
26034;SDS011;13809;48.632;11.576;2023-04-24T12:53:23;1.07;;;0.93;;
26034;SDS011;13809;48.632;11.576;2023-04-24T12:58:27;1.20;;;0.90;;
26034;SDS011;13809;48.632;11.576;2023-04-24T13:03:32;1.10;;;1.00;;
26034;SDS011;13809;48.632;11.576;2023-04-24T13:08:37;3.27;;;1.40;;
26034;SDS011;13809;48.632;11.576;2023-04-24T13:13:41;1.30;;;1.20;;
26034;SDS011;13809;48.632;11.576;2023-04-24T13:18:46;1.73;;;1.20;;
26034;SDS011;13809;48.632;11.576;2023-04-24T13:23:49;2.33;;;1.10;;
26034;SDS011;13809;48.632;11.576;2023-04-24T13:28:53;2.67;;;1.30;;
26034;SDS011;13809;48.632;11.576;2023-04-24T13:33:57;1.40;;;1.30;;
26034;SDS011;13809;48.632;11.576;2023-04-24T13:39:01;2.13;;;1.20;;
26034;SDS011;13809;48.632;11.576;2023-04-24T13:44:05;3.17;;;2.13;;
26034;SDS011;13809;48.632;11.576;2023-04-24T13:49:10;1.80;;;1.40;;
26034;SDS011;13809;48.632;11.576;2023-04-24T13:54:13;1.50;;;1.40;;
26034;SDS011;13809;48.632;11.576;2023-04-24T13:59:17;1.33;;;1.20;;
26034;SDS011;13809;48.632;11.576;2023-04-24T14:04:23;1.13;;;1.03;;
26034;SDS011;13809;48.632;11.576;2023-04-24T14:09:27;1.20;;;1.20;;
26034;SDS011;13809;48.632;11.576;2023-04-24T14:14:30;1.20;;;1.10;;
26034;SDS011;13809;48.632;11.576;2023-04-24T14:19:34;1.17;;;1.10;;
26034;SDS011;13809;48.632;11.576;2023-04-24T14:24:38;1.60;;;1.20;;
26034;SDS011;13809;48.632;11.576;2023-04-24T14:29:41;2.07;;;1.17;;
26034;SDS011;13809;48.632;11.576;2023-04-24T14:34:45;1.40;;;1.30;;
26034;SDS011;13809;48.632;11.576;2023-04-24T14:39:48;1.20;;;1.10;;
26034;SDS011;13809;48.632;11.576;2023-04-24T14:45:11;0.97;;;0.83;;
26034;SDS011;13809;48.632;11.576;2023-04-24T14:50:16;1.00;;;0.90;;
26034;SDS011;13809;48.632;11.576;2023-04-24T14:55:19;1.13;;;1.03;;
26034;SDS011;13809;48.632;11.576;2023-04-24T15:00:23;0.93;;;0.93;;
26034;SDS011;13809;48.632;11.576;2023-04-24T15:05:27;0.83;;;0.80;;
26034;SDS011;13809;48.632;11.576;2023-04-24T15:10:31;1.10;;;1.00;;
26034;SDS011;13809;48.632;11.576;2023-04-24T15:15:35;1.00;;;1.00;;
26034;SDS011;13809;48.632;11.576;2023-04-24T15:20:39;0.90;;;0.90;;
26034;SDS011;13809;48.632;11.576;2023-04-24T15:25:44;0.87;;;0.87;;
26034;SDS011;13809;48.632;11.576;2023-04-24T15:30:47;1.00;;;1.00;;
26034;SDS011;13809;48.632;11.576;2023-04-24T15:35:51;1.40;;;1.23;;
26034;SDS011;13809;48.632;11.576;2023-04-24T15:40:54;0.90;;;0.90;;
26034;SDS011;13809;48.632;11.576;2023-04-24T15:45:57;0.90;;;0.90;;
26034;SDS011;13809;48.632;11.576;2023-04-24T15:51:02;1.80;;;1.00;;
26034;SDS011;13809;48.632;11.576;2023-04-24T15:56:05;1.00;;;1.00;;
26034;SDS011;13809;48.632;11.576;2023-04-24T16:01:08;1.53;;;1.00;;
26034;SDS011;13809;48.632;11.576;2023-04-24T16:06:13;1.33;;;1.27;;
26034;SDS011;13809;48.632;11.576;2023-04-24T16:11:16;0.90;;;0.90;;
26034;SDS011;13809;48.632;11.576;2023-04-24T16:16:19;1.00;;;1.00;;
26034;SDS011;13809;48.632;11.576;2023-04-24T16:21:26;5.90;;;5.40;;
26034;SDS011;13809;48.632;11.576;2023-04-24T16:26:29;2.10;;;1.80;;
26034;SDS011;13809;48.632;11.576;2023-04-24T16:31:32;2.23;;;1.30;;
26034;SDS011;13809;48.632;11.576;2023-04-24T16:36:37;1.00;;;1.00;;
26034;SDS011;13809;48.632;11.576;2023-04-24T16:41:40;1.50;;;1.03;;
26034;SDS011;13809;48.632;11.576;2023-04-24T16:46:43;1.67;;;1.00;;
26034;SDS011;13809;48.632;11.576;2023-04-24T16:51:47;1.03;;;1.03;;
26034;SDS011;13809;48.632;11.576;2023-04-24T16:56:51;1.00;;;1.00;;
26034;SDS011;13809;48.632;11.576;2023-04-24T17:01:55;1.33;;;1.03;;
26034;SDS011;13809;48.632;11.576;2023-04-24T17:06:59;0.90;;;0.90;;
26034;SDS011;13809;48.632;11.576;2023-04-24T17:12:03;1.00;;;1.00;;
26034;SDS011;13809;48.632;11.576;2023-04-24T17:17:07;1.30;;;1.17;;
26034;SDS011;13809;48.632;11.576;2023-04-24T17:22:11;1.07;;;0.97;;
26034;SDS011;13809;48.632;11.576;2023-04-24T17:27:14;2.53;;;1.53;;
26034;SDS011;13809;48.632;11.576;2023-04-24T17:32:17;1.30;;;1.20;;
26034;SDS011;13809;48.632;11.576;2023-04-24T17:37:22;1.03;;;1.03;;
26034;SDS011;13809;48.632;11.576;2023-04-24T17:42:25;0.90;;;0.90;;
26034;SDS011;13809;48.632;11.576;2023-04-24T17:47:28;1.30;;;1.20;;
26034;SDS011;13809;48.632;11.576;2023-04-24T17:52:33;1.30;;;1.20;;
26034;SDS011;13809;48.632;11.576;2023-04-24T17:57:36;1.33;;;1.23;;
26034;SDS011;13809;48.632;11.576;2023-04-24T18:02:40;1.17;;;1.17;;
26034;SDS011;13809;48.632;11.576;2023-04-24T18:07:44;1.10;;;1.10;;
26034;SDS011;13809;48.632;11.576;2023-04-24T18:12:47;1.20;;;1.10;;
26034;SDS011;13809;48.632;11.576;2023-04-24T18:17:50;2.17;;;1.47;;
26034;SDS011;13809;48.632;11.576;2023-04-24T18:22:55;2.03;;;1.30;;
26034;SDS011;13809;48.632;11.576;2023-04-24T18:27:58;1.97;;;1.27;;
26034;SDS011;13809;48.632;11.576;2023-04-24T18:33:01;1.30;;;1.27;;
26034;SDS011;13809;48.632;11.576;2023-04-24T18:38:07;1.67;;;1.33;;
26034;SDS011;13809;48.632;11.576;2023-04-24T18:43:10;1.10;;;1.10;;
26034;SDS011;13809;48.632;11.576;2023-04-24T18:48:13;1.40;;;1.30;;
26034;SDS011;13809;48.632;11.576;2023-04-24T18:53:18;1.20;;;1.20;;
26034;SDS011;13809;48.632;11.576;2023-04-24T18:58:21;1.30;;;1.20;;
26034;SDS011;13809;48.632;11.576;2023-04-24T19:03:24;2.00;;;1.40;;
26034;SDS011;13809;48.632;11.576;2023-04-24T19:08:29;1.40;;;1.30;;
26034;SDS011;13809;48.632;11.576;2023-04-24T19:13:33;1.70;;;1.60;;
26034;SDS011;13809;48.632;11.576;2023-04-24T19:18:36;1.70;;;1.60;;
26034;SDS011;13809;48.632;11.576;2023-04-24T19:23:40;1.57;;;1.47;;
26034;SDS011;13809;48.632;11.576;2023-04-24T19:28:44;2.30;;;2.10;;
26034;SDS011;13809;48.632;11.576;2023-04-24T19:33:48;1.73;;;1.63;;
26034;SDS011;13809;48.632;11.576;2023-04-24T19:38:52;1.97;;;1.77;;
26034;SDS011;13809;48.632;11.576;2023-04-24T19:43:56;1.77;;;1.47;;
26034;SDS011;13809;48.632;11.576;2023-04-24T19:48:59;1.80;;;1.70;;
26034;SDS011;13809;48.632;11.576;2023-04-24T19:54:04;1.60;;;1.50;;
26034;SDS011;13809;48.632;11.576;2023-04-24T19:59:07;1.70;;;1.60;;
26034;SDS011;13809;48.632;11.576;2023-04-24T20:04:10;1.90;;;1.80;;
26034;SDS011;13809;48.632;11.576;2023-04-24T20:09:15;2.00;;;1.90;;
26034;SDS011;13809;48.632;11.576;2023-04-24T20:14:18;1.40;;;1.30;;
26034;SDS011;13809;48.632;11.576;2023-04-24T20:19:21;2.47;;;2.23;;
26034;SDS011;13809;48.632;11.576;2023-04-24T20:24:25;2.77;;;2.53;;
26034;SDS011;13809;48.632;11.576;2023-04-24T20:29:29;4.00;;;2.50;;
26034;SDS011;13809;48.632;11.576;2023-04-24T20:34:32;2.23;;;2.03;;
26034;SDS011;13809;48.632;11.576;2023-04-24T20:39:38;2.40;;;2.10;;
26034;SDS011;13809;48.632;11.576;2023-04-24T20:44:41;1.83;;;1.73;;
26034;SDS011;13809;48.632;11.576;2023-04-24T20:49:45;2.00;;;1.90;;
26034;SDS011;13809;48.632;11.576;2023-04-24T20:54:50;2.00;;;1.90;;
26034;SDS011;13809;48.632;11.576;2023-04-24T20:59:53;1.80;;;1.70;;
26034;SDS011;13809;48.632;11.576;2023-04-24T21:04:56;2.13;;;2.03;;
26034;SDS011;13809;48.632;11.576;2023-04-24T21:10:01;2.00;;;1.90;;
26034;SDS011;13809;48.632;11.576;2023-04-24T21:15:05;4.10;;;2.30;;
26034;SDS011;13809;48.632;11.576;2023-04-24T21:20:09;2.27;;;2.17;;
26034;SDS011;13809;48.632;11.576;2023-04-24T21:25:14;2.10;;;2.00;;
26034;SDS011;13809;48.632;11.576;2023-04-24T21:30:17;2.30;;;2.20;;
26034;SDS011;13809;48.632;11.576;2023-04-24T21:35:22;2.80;;;2.30;;
26034;SDS011;13809;48.632;11.576;2023-04-24T21:40:26;2.40;;;2.20;;
26034;SDS011;13809;48.632;11.576;2023-04-24T21:45:30;2.33;;;2.13;;
26034;SDS011;13809;48.632;11.576;2023-04-24T21:50:33;3.23;;;2.27;;
26034;SDS011;13809;48.632;11.576;2023-04-24T21:55:38;2.40;;;2.20;;
26034;SDS011;13809;48.632;11.576;2023-04-24T22:00:41;4.63;;;2.90;;
26034;SDS011;13809;48.632;11.576;2023-04-24T22:05:44;2.70;;;2.20;;
26034;SDS011;13809;48.632;11.576;2023-04-24T22:10:49;2.00;;;1.90;;
26034;SDS011;13809;48.632;11.576;2023-04-24T22:15:53;2.10;;;1.90;;
26034;SDS011;13809;48.632;11.576;2023-04-24T22:20:56;2.20;;;2.00;;
26034;SDS011;13809;48.632;11.576;2023-04-24T22:26:02;2.50;;;2.30;;
26034;SDS011;13809;48.632;11.576;2023-04-24T22:31:06;3.30;;;2.80;;
26034;SDS011;13809;48.632;11.576;2023-04-24T22:36:09;3.93;;;2.90;;
26034;SDS011;13809;48.632;11.576;2023-04-24T22:41:14;2.97;;;2.77;;
26034;SDS011;13809;48.632;11.576;2023-04-24T22:46:17;3.33;;;3.03;;
26034;SDS011;13809;48.632;11.576;2023-04-24T22:51:20;4.70;;;2.47;;
26034;SDS011;13809;48.632;11.576;2023-04-24T22:56:25;3.90;;;2.60;;
26034;SDS011;13809;48.632;11.576;2023-04-24T23:01:28;2.70;;;2.50;;
26034;SDS011;13809;48.632;11.576;2023-04-24T23:06:31;2.50;;;2.30;;
26034;SDS011;13809;48.632;11.576;2023-04-24T23:11:35;2.80;;;2.60;;
26034;SDS011;13809;48.632;11.576;2023-04-24T23:16:39;3.37;;;2.60;;
26034;SDS011;13809;48.632;11.576;2023-04-24T23:21:43;2.80;;;2.60;;
26034;SDS011;13809;48.632;11.576;2023-04-24T23:26:47;3.13;;;2.60;;
26034;SDS011;13809;48.632;11.576;2023-04-24T23:31:50;2.73;;;2.53;;
26034;SDS011;13809;48.632;11.576;2023-04-24T23:36:54;2.97;;;2.30;;
26034;SDS011;13809;48.632;11.576;2023-04-24T23:41:58;2.70;;;2.50;;
26034;SDS011;13809;48.632;11.576;2023-04-24T23:47:03;3.07;;;2.50;;
26034;SDS011;13809;48.632;11.576;2023-04-24T23:52:06;2.67;;;2.47;;
26034;SDS011;13809;48.632;11.576;2023-04-24T23:57:10;2.70;;;2.50;;
